SVA434 HKJK-OEJN
Flight info
| Callsign | SVA434 |
|---|---|
| Flight time | 3h 14m |
| Altitude | 38000 |
| Route | NAVE2D LOTAS UM308 RUDOL/N0460F410 M308 OKNET UM308 SHALA M308 ETGUL UM308 KONET G650 RASKA/N0459F400 T513 EGMEG |
| Aircraft | A333/H-SADE1E2E3GHIJ3J5M1P2RWXY/LB2D1 |
Departure
| Time | 2026-04-30 19:00 |
|---|---|
| Airport | Jomo Kenyatta International Airport (HKJK) |
Arrival
| Time | 2026-04-30 22:14 |
|---|---|
| Airport | King Abdulaziz International Airport (OEJN) |
| Time | Latitude | Longitude | Altitude | Speed | Heading |
|---|---|---|---|---|---|
| 2026-04-30 18:34 | -1.32858 | 36.92486 | 5330 ft | 0 kts | 175° |
| 2026-04-30 18:50 | -1.32847 | 36.92485 | 5333 ft | 3 kts | 175° |
| 2026-04-30 18:51 | -1.32826 | 36.92483 | 5330 ft | 3 kts | 178° |
| 2026-04-30 18:51 | -1.32805 | 36.92482 | 5330 ft | 3 kts | 176° |
| 2026-04-30 18:51 | -1.32784 | 36.92483 | 5330 ft | 3 kts | 208° |
| 2026-04-30 18:51 | -1.32766 | 36.92494 | 5335 ft | 3 kts | 249° |
| 2026-04-30 18:52 | -1.32763 | 36.92500 | 5336 ft | 0 kts | 263° |
| 2026-04-30 18:55 | -1.32767 | 36.92476 | 5336 ft | 7 kts | 260° |
| 2026-04-30 18:55 | -1.32701 | 36.92360 | 5335 ft | 11 kts | 323° |
| 2026-04-30 18:55 | -1.32676 | 36.92321 | 5333 ft | 4 kts | 264° |
| 2026-04-30 18:56 | -1.32746 | 36.92211 | 5337 ft | 11 kts | 233° |
| 2026-04-30 18:56 | -1.32791 | 36.92150 | 5338 ft | 11 kts | 234° |
| 2026-04-30 18:56 | -1.32835 | 36.92090 | 5339 ft | 11 kts | 234° |
| 2026-04-30 18:57 | -1.32966 | 36.91910 | 5341 ft | 20 kts | 230° |
| 2026-04-30 18:57 | -1.33011 | 36.91849 | 5339 ft | 7 kts | 233° |
| 2026-04-30 18:57 | -1.33009 | 36.91826 | 5340 ft | 1 kts | 295° |
| 2026-04-30 18:58 | -1.32986 | 36.91812 | 5345 ft | 4 kts | 322° |
| 2026-04-30 18:58 | -1.32952 | 36.91787 | 5347 ft | 9 kts | 324° |
| 2026-04-30 18:58 | -1.32891 | 36.91743 | 5343 ft | 12 kts | 324° |
| 2026-04-30 18:59 | -1.32766 | 36.91657 | 5345 ft | 5 kts | 336° |
| 2026-04-30 19:00 | -1.32516 | 36.91969 | 5336 ft | 87 kts | 53° |
| 2026-04-30 19:00 | -1.32024 | 36.92642 | 5318 ft | 150 kts | 54° |
| 2026-04-30 19:00 | -1.30538 | 36.94621 | 6248 ft | 184 kts | 50° |
| 2026-04-30 19:01 | -1.28069 | 36.95208 | 7241 ft | 211 kts | 348° |
| 2026-04-30 19:01 | -1.26586 | 36.94813 | 7550 ft | 231 kts | 347° |
| 2026-04-30 19:02 | -1.23170 | 36.93943 | 8113 ft | 275 kts | 348° |
| 2026-04-30 19:02 | -1.19277 | 36.93061 | 9113 ft | 293 kts | 349° |
| 2026-04-30 19:03 | -1.15232 | 36.92168 | 10438 ft | 300 kts | 349° |
| 2026-04-30 19:03 | -1.10893 | 36.91213 | 10834 ft | 338 kts | 349° |
| 2026-04-30 19:04 | -1.06136 | 36.90164 | 11675 ft | 354 kts | 348° |
| 2026-04-30 19:04 | -1.01309 | 36.89095 | 12790 ft | 360 kts | 348° |
| 2026-04-30 19:05 | -0.96384 | 36.88006 | 13961 ft | 365 kts | 348° |
| 2026-04-30 19:05 | -0.91383 | 36.86900 | 14955 ft | 371 kts | 348° |
| 2026-04-30 19:06 | -0.86312 | 36.85779 | 15938 ft | 376 kts | 347° |
| 2026-04-30 19:06 | -0.83748 | 36.85211 | 16421 ft | 378 kts | 347° |
| 2026-04-30 19:06 | -0.78606 | 36.84074 | 17357 ft | 383 kts | 347° |
| 2026-04-30 19:07 | -0.73358 | 36.82914 | 18290 ft | 388 kts | 347° |
| 2026-04-30 19:07 | -0.70706 | 36.82327 | 18722 ft | 390 kts | 347° |
| 2026-04-30 19:08 | -0.65366 | 36.81146 | 19522 ft | 395 kts | 347° |
| 2026-04-30 19:08 | -0.59966 | 36.79952 | 20328 ft | 400 kts | 347° |
| 2026-04-30 19:08 | -0.57238 | 36.79348 | 20730 ft | 402 kts | 347° |
| 2026-04-30 19:09 | -0.51728 | 36.78130 | 21514 ft | 408 kts | 347° |
| 2026-04-30 19:09 | -0.49887 | 36.77722 | 21796 ft | 409 kts | 347° |
| 2026-04-30 19:09 | -0.47099 | 36.77105 | 22192 ft | 412 kts | 347° |
| 2026-04-30 19:10 | -0.41454 | 36.75858 | 22991 ft | 417 kts | 347° |
| 2026-04-30 19:10 | -0.35746 | 36.74596 | 23770 ft | 423 kts | 347° |
| 2026-04-30 19:11 | -0.32866 | 36.73958 | 24113 ft | 425 kts | 347° |
| 2026-04-30 19:11 | -0.27095 | 36.72682 | 24800 ft | 429 kts | 347° |
| 2026-04-30 19:11 | -0.24171 | 36.72036 | 25159 ft | 431 kts | 347° |
| 2026-04-30 19:12 | -0.21229 | 36.71385 | 25492 ft | 433 kts | 347° |
| 2026-04-30 19:12 | -0.18281 | 36.70733 | 25831 ft | 436 kts | 347° |
| 2026-04-30 19:12 | -0.15306 | 36.70075 | 26164 ft | 438 kts | 347° |
| 2026-04-30 19:13 | -0.09315 | 36.68752 | 26847 ft | 442 kts | 347° |
| 2026-04-30 19:13 | -0.03234 | 36.67582 | 27472 ft | 447 kts | 352° |
| 2026-04-30 19:13 | -0.00139 | 36.67169 | 27796 ft | 449 kts | 352° |
| 2026-04-30 19:14 | 0.02940 | 36.66750 | 28118 ft | 451 kts | 352° |
| 2026-04-30 19:14 | 0.06057 | 36.66321 | 28431 ft | 454 kts | 348° |
| 2026-04-30 19:14 | 0.09173 | 36.65828 | 28656 ft | 457 kts | 351° |
| 2026-04-30 19:14 | 0.12343 | 36.65391 | 29018 ft | 458 kts | 352° |
| 2026-04-30 19:15 | 0.15509 | 36.64980 | 29336 ft | 460 kts | 352° |
| 2026-04-30 19:15 | 0.21901 | 36.64133 | 29960 ft | 465 kts | 352° |
| 2026-04-30 19:15 | 0.25111 | 36.63697 | 30266 ft | 467 kts | 352° |
| 2026-04-30 19:16 | 0.28351 | 36.63252 | 30567 ft | 469 kts | 352° |
| 2026-04-30 19:16 | 0.31582 | 36.62807 | 30887 ft | 470 kts | 352° |
| 2026-04-30 19:16 | 0.38042 | 36.61917 | 31516 ft | 473 kts | 352° |
| 2026-04-30 19:17 | 0.41313 | 36.61466 | 31808 ft | 475 kts | 352° |
| 2026-04-30 19:17 | 0.47888 | 36.60560 | 32409 ft | 479 kts | 352° |
| 2026-04-30 19:17 | 0.51207 | 36.60103 | 32665 ft | 480 kts | 352° |
| 2026-04-30 19:18 | 0.56718 | 36.59345 | 33034 ft | 483 kts | 352° |
| 2026-04-30 19:18 | 0.61188 | 36.58729 | 33282 ft | 485 kts | 352° |
| 2026-04-30 19:18 | 0.64536 | 36.58268 | 33437 ft | 486 kts | 352° |
| 2026-04-30 19:19 | 0.67902 | 36.57805 | 33594 ft | 487 kts | 352° |
| 2026-04-30 19:19 | 0.71214 | 36.57349 | 33778 ft | 486 kts | 352° |
| 2026-04-30 19:19 | 0.77917 | 36.56425 | 34152 ft | 485 kts | 352° |
| 2026-04-30 19:20 | 0.81263 | 36.55965 | 34334 ft | 484 kts | 352° |
| 2026-04-30 19:20 | 0.84598 | 36.55505 | 34504 ft | 484 kts | 352° |
| 2026-04-30 19:20 | 0.91268 | 36.54586 | 34857 ft | 482 kts | 352° |
| 2026-04-30 19:21 | 0.94592 | 36.54132 | 35023 ft | 482 kts | 352° |
| 2026-04-30 19:21 | 1.01264 | 36.54165 | 35354 ft | 481 kts | 7° |
| 2026-04-30 19:22 | 1.07727 | 36.55766 | 35673 ft | 481 kts | 16° |
| 2026-04-30 19:22 | 1.17362 | 36.58617 | 36179 ft | 482 kts | 16° |
| 2026-04-30 19:23 | 1.27018 | 36.61455 | 36706 ft | 482 kts | 16° |
| 2026-04-30 19:24 | 1.33448 | 36.63346 | 37039 ft | 483 kts | 16° |
| 2026-04-30 19:24 | 1.36687 | 36.64299 | 37213 ft | 483 kts | 16° |
| 2026-04-30 19:24 | 1.43122 | 36.66193 | 37579 ft | 482 kts | 16° |
| 2026-04-30 19:25 | 1.52782 | 36.69036 | 38031 ft | 483 kts | 16° |
| 2026-04-30 19:26 | 1.65639 | 36.72821 | 38026 ft | 482 kts | 16° |
| 2026-04-30 19:27 | 1.75266 | 36.75654 | 38036 ft | 482 kts | 16° |
| 2026-04-30 19:28 | 1.84933 | 36.78499 | 38017 ft | 483 kts | 16° |
| 2026-04-30 19:29 | 1.97847 | 36.82301 | 38026 ft | 483 kts | 16° |
| 2026-04-30 19:30 | 2.10725 | 36.86093 | 38012 ft | 483 kts | 16° |
| 2026-04-30 19:31 | 2.23603 | 36.89883 | 38021 ft | 483 kts | 16° |
| 2026-04-30 19:31 | 2.33300 | 36.92739 | 38016 ft | 484 kts | 17° |
| 2026-04-30 19:32 | 2.39776 | 36.94647 | 37998 ft | 484 kts | 17° |
| 2026-04-30 19:32 | 2.46228 | 36.96548 | 38011 ft | 484 kts | 17° |
| 2026-04-30 19:33 | 2.52690 | 36.98453 | 38003 ft | 483 kts | 17° |
| 2026-04-30 19:33 | 2.59144 | 37.00355 | 37987 ft | 483 kts | 17° |
| 2026-04-30 19:34 | 2.65592 | 37.02255 | 37979 ft | 483 kts | 17° |
| 2026-04-30 19:35 | 2.75251 | 37.05103 | 38003 ft | 482 kts | 17° |
| 2026-04-30 19:35 | 2.81643 | 37.06987 | 37998 ft | 482 kts | 17° |
| 2026-04-30 19:36 | 2.88090 | 37.08888 | 37975 ft | 481 kts | 17° |
| 2026-04-30 19:36 | 2.97726 | 37.11730 | 37966 ft | 481 kts | 17° |
| 2026-04-30 19:37 | 3.04143 | 37.13622 | 37971 ft | 480 kts | 17° |
| 2026-04-30 19:37 | 3.10545 | 37.15511 | 37975 ft | 480 kts | 17° |
| 2026-04-30 19:38 | 3.16950 | 37.17401 | 37951 ft | 480 kts | 17° |
| 2026-04-30 19:38 | 3.23349 | 37.19289 | 37955 ft | 480 kts | 17° |
| 2026-04-30 19:39 | 3.29737 | 37.21173 | 38033 ft | 482 kts | 17° |
| 2026-04-30 19:39 | 3.32947 | 37.22121 | 38222 ft | 481 kts | 17° |
| 2026-04-30 19:39 | 3.36159 | 37.23069 | 38391 ft | 481 kts | 17° |
| 2026-04-30 19:40 | 3.39377 | 37.24019 | 38583 ft | 481 kts | 17° |
| 2026-04-30 19:40 | 3.42580 | 37.24965 | 38762 ft | 479 kts | 17° |
| 2026-04-30 19:40 | 3.45776 | 37.25909 | 38978 ft | 477 kts | 17° |
| 2026-04-30 19:40 | 3.48959 | 37.26848 | 39193 ft | 475 kts | 17° |
| 2026-04-30 19:41 | 3.52128 | 37.27783 | 39385 ft | 474 kts | 17° |
| 2026-04-30 19:41 | 3.55254 | 37.28706 | 39549 ft | 473 kts | 17° |
| 2026-04-30 19:41 | 3.58405 | 37.29637 | 39713 ft | 472 kts | 17° |
| 2026-04-30 19:41 | 3.61540 | 37.30563 | 39889 ft | 471 kts | 17° |
| 2026-04-30 19:42 | 3.67842 | 37.32425 | 39969 ft | 469 kts | 17° |
| 2026-04-30 19:42 | 3.74096 | 37.34273 | 39977 ft | 469 kts | 17° |
| 2026-04-30 19:43 | 3.80328 | 37.36114 | 39978 ft | 469 kts | 17° |
| 2026-04-30 19:44 | 3.89715 | 37.38887 | 39984 ft | 468 kts | 18° |
| 2026-04-30 19:44 | 3.95961 | 37.40733 | 39996 ft | 468 kts | 18° |
| 2026-04-30 19:45 | 4.02213 | 37.42562 | 39997 ft | 468 kts | 17° |
| 2026-04-30 19:45 | 4.08509 | 37.44248 | 39998 ft | 468 kts | 16° |
| 2026-04-30 19:46 | 4.14800 | 37.45927 | 40008 ft | 468 kts | 16° |
| 2026-04-30 19:46 | 4.21086 | 37.47623 | 40009 ft | 467 kts | 16° |
| 2026-04-30 19:47 | 4.27367 | 37.49323 | 40018 ft | 467 kts | 16° |
| 2026-04-30 19:47 | 4.33612 | 37.51014 | 40026 ft | 467 kts | 16° |
| 2026-04-30 19:48 | 4.39898 | 37.52716 | 40030 ft | 467 kts | 16° |
| 2026-04-30 19:48 | 4.46178 | 37.54416 | 40031 ft | 467 kts | 16° |
| 2026-04-30 19:49 | 4.52434 | 37.56110 | 40038 ft | 467 kts | 16° |
| 2026-04-30 19:49 | 4.61852 | 37.58661 | 40040 ft | 467 kts | 16° |
| 2026-04-30 19:50 | 4.68140 | 37.60365 | 40046 ft | 467 kts | 16° |
| 2026-04-30 19:50 | 4.74414 | 37.62065 | 40048 ft | 467 kts | 16° |
| 2026-04-30 19:51 | 4.80689 | 37.63766 | 40055 ft | 467 kts | 16° |
| 2026-04-30 19:51 | 4.86914 | 37.65453 | 40051 ft | 466 kts | 16° |
| 2026-04-30 19:52 | 4.93183 | 37.67153 | 40051 ft | 466 kts | 16° |
| 2026-04-30 19:52 | 4.99442 | 37.68851 | 40060 ft | 466 kts | 16° |
| 2026-04-30 19:53 | 5.05698 | 37.70548 | 40063 ft | 466 kts | 16° |
| 2026-04-30 19:53 | 5.11957 | 37.72246 | 40059 ft | 465 kts | 16° |
| 2026-04-30 19:54 | 5.18220 | 37.73945 | 40068 ft | 465 kts | 16° |
| 2026-04-30 19:54 | 5.24438 | 37.75633 | 40066 ft | 466 kts | 16° |
| 2026-04-30 19:55 | 5.30690 | 37.77330 | 40071 ft | 466 kts | 16° |
| 2026-04-30 19:55 | 5.35946 | 37.78757 | 40081 ft | 466 kts | 16° |
| 2026-04-30 19:56 | 5.42161 | 37.80445 | 40083 ft | 466 kts | 16° |
| 2026-04-30 19:56 | 5.48421 | 37.82145 | 40073 ft | 466 kts | 16° |
| 2026-04-30 19:57 | 5.54693 | 37.83849 | 40075 ft | 466 kts | 16° |
| 2026-04-30 19:57 | 5.60983 | 37.85558 | 40079 ft | 467 kts | 16° |
| 2026-04-30 19:58 | 5.67225 | 37.87255 | 40079 ft | 467 kts | 16° |
| 2026-04-30 19:58 | 5.73503 | 37.88962 | 40078 ft | 468 kts | 16° |
| 2026-04-30 19:59 | 5.79797 | 37.90674 | 40080 ft | 468 kts | 16° |
| 2026-04-30 20:00 | 5.89202 | 37.93232 | 40076 ft | 468 kts | 16° |
| 2026-04-30 20:00 | 5.95481 | 37.94940 | 40075 ft | 469 kts | 16° |
| 2026-04-30 20:01 | 6.04945 | 37.97517 | 40073 ft | 469 kts | 16° |
| 2026-04-30 20:01 | 6.11242 | 37.99231 | 40068 ft | 469 kts | 16° |
| 2026-04-30 20:02 | 6.20704 | 38.01809 | 40061 ft | 469 kts | 16° |
| 2026-04-30 20:03 | 6.30171 | 38.04388 | 40061 ft | 470 kts | 16° |
| 2026-04-30 20:03 | 6.36514 | 38.06118 | 40060 ft | 471 kts | 16° |
| 2026-04-30 20:04 | 6.42806 | 38.07833 | 40051 ft | 471 kts | 16° |
| 2026-04-30 20:05 | 6.52315 | 38.10427 | 40061 ft | 472 kts | 16° |
| 2026-04-30 20:05 | 6.61830 | 38.13007 | 40062 ft | 472 kts | 15° |
| 2026-04-30 20:06 | 6.68186 | 38.14727 | 40070 ft | 473 kts | 15° |
| 2026-04-30 20:06 | 6.74554 | 38.16452 | 40067 ft | 473 kts | 15° |
| 2026-04-30 20:07 | 6.80911 | 38.18174 | 40073 ft | 473 kts | 15° |
| 2026-04-30 20:08 | 6.90411 | 38.20750 | 40080 ft | 474 kts | 15° |
| 2026-04-30 20:08 | 6.96793 | 38.22480 | 40079 ft | 474 kts | 15° |
| 2026-04-30 20:09 | 7.03161 | 38.24207 | 40086 ft | 475 kts | 15° |
| 2026-04-30 20:09 | 7.12736 | 38.26806 | 40086 ft | 475 kts | 15° |
| 2026-04-30 20:10 | 7.22341 | 38.29413 | 40090 ft | 476 kts | 15° |
| 2026-04-30 20:11 | 7.31954 | 38.32024 | 40088 ft | 477 kts | 15° |
| 2026-04-30 20:11 | 7.38361 | 38.33765 | 40093 ft | 477 kts | 15° |
| 2026-04-30 20:12 | 7.47988 | 38.36381 | 40094 ft | 477 kts | 15° |
| 2026-04-30 20:13 | 7.54392 | 38.38016 | 40094 ft | 478 kts | 14° |
| 2026-04-30 20:13 | 7.60853 | 38.39591 | 40095 ft | 478 kts | 14° |
| 2026-04-30 20:14 | 7.67312 | 38.41186 | 40097 ft | 478 kts | 14° |
| 2026-04-30 20:14 | 7.73784 | 38.42795 | 40104 ft | 478 kts | 14° |
| 2026-04-30 20:15 | 7.80243 | 38.44401 | 40106 ft | 478 kts | 14° |
| 2026-04-30 20:15 | 7.86670 | 38.46001 | 40111 ft | 477 kts | 14° |
| 2026-04-30 20:16 | 7.93132 | 38.47609 | 40112 ft | 477 kts | 14° |
| 2026-04-30 20:16 | 7.99544 | 38.49205 | 40109 ft | 477 kts | 14° |
| 2026-04-30 20:17 | 8.05998 | 38.50812 | 40120 ft | 478 kts | 14° |
| 2026-04-30 20:17 | 8.12462 | 38.52423 | 40129 ft | 480 kts | 14° |
| 2026-04-30 20:18 | 8.19001 | 38.54053 | 40133 ft | 485 kts | 14° |
| 2026-04-30 20:18 | 8.25563 | 38.55692 | 40144 ft | 489 kts | 14° |
| 2026-04-30 20:19 | 8.32175 | 38.57345 | 40145 ft | 491 kts | 14° |
| 2026-04-30 20:19 | 8.38806 | 38.59002 | 40152 ft | 491 kts | 14° |
| 2026-04-30 20:20 | 8.45449 | 38.60663 | 40150 ft | 491 kts | 14° |
| 2026-04-30 20:20 | 8.52082 | 38.62322 | 40165 ft | 491 kts | 14° |
| 2026-04-30 20:21 | 8.58731 | 38.63986 | 40166 ft | 491 kts | 14° |
| 2026-04-30 20:21 | 8.65321 | 38.65635 | 40178 ft | 490 kts | 14° |
| 2026-04-30 20:22 | 8.71381 | 38.67153 | 40237 ft | 490 kts | 14° |
| 2026-04-30 20:22 | 8.78007 | 38.68813 | 40294 ft | 490 kts | 14° |
| 2026-04-30 20:23 | 8.84626 | 38.70471 | 40354 ft | 490 kts | 14° |
| 2026-04-30 20:23 | 8.91250 | 38.72131 | 40404 ft | 490 kts | 14° |
| 2026-04-30 20:24 | 8.97872 | 38.73792 | 40393 ft | 490 kts | 14° |
| 2026-04-30 20:24 | 9.04453 | 38.75443 | 40393 ft | 490 kts | 14° |
| 2026-04-30 20:25 | 9.14523 | 38.77115 | 40387 ft | 483 kts | 2° |
| 2026-04-30 20:25 | 9.17844 | 38.77187 | 40387 ft | 467 kts | 2° |
| 2026-04-30 20:26 | 9.24121 | 38.77348 | 40382 ft | 441 kts | 2° |
| 2026-04-30 20:26 | 9.30088 | 38.77516 | 40371 ft | 415 kts | 2° |
| 2026-04-30 20:26 | 9.32933 | 38.77595 | 40374 ft | 403 kts | 2° |
| 2026-04-30 20:27 | 9.38371 | 38.77744 | 40334 ft | 379 kts | 2° |
| 2026-04-30 20:27 | 9.43636 | 38.77861 | 39452 ft | 380 kts | 1° |
| 2026-04-30 20:28 | 9.48949 | 38.77864 | 38593 ft | 380 kts | 359° |
| 2026-04-30 20:28 | 9.54146 | 38.77655 | 38033 ft | 370 kts | 356° |
| 2026-04-30 20:29 | 9.59211 | 38.77147 | 37334 ft | 363 kts | 352° |
| 2026-04-30 20:30 | 9.66726 | 38.77501 | 35963 ft | 362 kts | 15° |
| 2026-04-30 20:30 | 9.73931 | 38.78697 | 35438 ft | 352 kts | 4° |
| 2026-04-30 20:31 | 9.81306 | 38.78969 | 36265 ft | 348 kts | 2° |
| 2026-04-30 20:32 | 9.88616 | 38.79120 | 36778 ft | 355 kts | 2° |
| 2026-04-30 20:32 | 9.93579 | 38.79232 | 37123 ft | 360 kts | 1° |
| 2026-04-30 20:33 | 9.96092 | 38.79225 | 37270 ft | 363 kts | 360° |
| 2026-04-30 20:33 | 10.01144 | 38.79318 | 37653 ft | 366 kts | 4° |
| 2026-04-30 20:33 | 10.03687 | 38.79476 | 37851 ft | 367 kts | 5° |
| 2026-04-30 20:34 | 10.08805 | 38.79805 | 38208 ft | 370 kts | 1° |
| 2026-04-30 20:34 | 10.13972 | 38.79881 | 38585 ft | 373 kts | 1° |
| 2026-04-30 20:35 | 10.16561 | 38.79928 | 38776 ft | 374 kts | 2° |
| 2026-04-30 20:35 | 10.19171 | 38.80023 | 38905 ft | 376 kts | 3° |
| 2026-04-30 20:35 | 10.24444 | 38.80255 | 39053 ft | 385 kts | 1° |
| 2026-04-30 20:36 | 10.29904 | 38.80280 | 39099 ft | 398 kts | 1° |
| 2026-04-30 20:36 | 10.35527 | 38.80399 | 39198 ft | 410 kts | 2° |
| 2026-04-30 20:37 | 10.38366 | 38.80475 | 39257 ft | 415 kts | 2° |
| 2026-04-30 20:37 | 10.44238 | 38.80639 | 39345 ft | 428 kts | 2° |
| 2026-04-30 20:38 | 10.50277 | 38.80805 | 39441 ft | 440 kts | 2° |
| 2026-04-30 20:38 | 10.56481 | 38.80976 | 39546 ft | 452 kts | 2° |
| 2026-04-30 20:39 | 10.64996 | 38.81208 | 39682 ft | 467 kts | 2° |
| 2026-04-30 20:40 | 10.74914 | 38.81477 | 39809 ft | 482 kts | 2° |
| 2026-04-30 20:40 | 10.81652 | 38.81661 | 39993 ft | 485 kts | 2° |
| 2026-04-30 20:41 | 10.88391 | 38.81845 | 40245 ft | 485 kts | 2° |
| 2026-04-30 20:41 | 10.91737 | 38.81936 | 40251 ft | 488 kts | 2° |
| 2026-04-30 20:41 | 10.98551 | 38.82123 | 40241 ft | 490 kts | 2° |
| 2026-04-30 20:42 | 11.05312 | 38.82308 | 40228 ft | 482 kts | 2° |
| 2026-04-30 20:43 | 11.15363 | 38.82583 | 40222 ft | 485 kts | 2° |
| 2026-04-30 20:43 | 11.22154 | 38.82769 | 40210 ft | 491 kts | 2° |
| 2026-04-30 20:44 | 11.32453 | 38.83053 | 40199 ft | 494 kts | 2° |
| 2026-04-30 20:44 | 11.39222 | 38.83239 | 40193 ft | 482 kts | 2° |
| 2026-04-30 20:45 | 11.45910 | 38.83423 | 40191 ft | 484 kts | 2° |
| 2026-04-30 20:45 | 11.52646 | 38.83608 | 40189 ft | 484 kts | 2° |
| 2026-04-30 20:46 | 11.66112 | 38.83978 | 40170 ft | 484 kts | 2° |
| 2026-04-30 20:47 | 11.76225 | 38.84256 | 40155 ft | 484 kts | 2° |
| 2026-04-30 20:48 | 11.86169 | 38.84531 | 40137 ft | 484 kts | 2° |
| 2026-04-30 20:48 | 11.92906 | 38.84717 | 40128 ft | 484 kts | 1° |
| 2026-04-30 20:49 | 11.99659 | 38.84902 | 40115 ft | 484 kts | 2° |
| 2026-04-30 20:50 | 12.09772 | 38.85182 | 40103 ft | 485 kts | 2° |
| 2026-04-30 20:50 | 12.16521 | 38.85369 | 40101 ft | 484 kts | 2° |
| 2026-04-30 20:51 | 12.23267 | 38.85555 | 40107 ft | 484 kts | 1° |
| 2026-04-30 20:51 | 12.33371 | 38.85835 | 40096 ft | 484 kts | 1° |
| 2026-04-30 20:52 | 12.40096 | 38.86023 | 40094 ft | 484 kts | 1° |
| 2026-04-30 20:53 | 12.50165 | 38.86306 | 40092 ft | 483 kts | 1° |
| 2026-04-30 20:53 | 12.56878 | 38.86494 | 40082 ft | 483 kts | 1° |
| 2026-04-30 20:54 | 12.66986 | 38.86776 | 40075 ft | 483 kts | 1° |
| 2026-04-30 20:55 | 12.77068 | 38.87058 | 40059 ft | 483 kts | 1° |
| 2026-04-30 20:55 | 12.83789 | 38.87246 | 40055 ft | 483 kts | 1° |
| 2026-04-30 20:56 | 12.93828 | 38.87528 | 40055 ft | 483 kts | 1° |
| 2026-04-30 20:57 | 13.03909 | 38.87708 | 40044 ft | 483 kts | 1° |
| 2026-04-30 20:57 | 13.10629 | 38.87820 | 40047 ft | 483 kts | 1° |
| 2026-04-30 20:58 | 13.20724 | 38.88001 | 40056 ft | 483 kts | 1° |
| 2026-04-30 20:58 | 13.27448 | 38.88122 | 40045 ft | 483 kts | 1° |
| 2026-04-30 20:59 | 13.37542 | 38.88303 | 40062 ft | 483 kts | 1° |
| 2026-04-30 21:00 | 13.50976 | 38.88545 | 40063 ft | 484 kts | 1° |
| 2026-04-30 21:01 | 13.61125 | 38.88726 | 40059 ft | 484 kts | 1° |
| 2026-04-30 21:02 | 13.71200 | 38.88908 | 40060 ft | 484 kts | 1° |
| 2026-04-30 21:02 | 13.77955 | 38.89030 | 40063 ft | 484 kts | 1° |
| 2026-04-30 21:03 | 13.84697 | 38.89152 | 40066 ft | 485 kts | 0° |
| 2026-04-30 21:03 | 13.91447 | 38.89274 | 40059 ft | 485 kts | 0° |
| 2026-04-30 21:04 | 13.98194 | 38.89396 | 40061 ft | 485 kts | 0° |
| 2026-04-30 21:04 | 14.08264 | 38.89562 | 40069 ft | 484 kts | 0° |
| 2026-04-30 21:05 | 14.15010 | 38.89626 | 40070 ft | 484 kts | 0° |
| 2026-04-30 21:05 | 14.21751 | 38.89694 | 40056 ft | 484 kts | 0° |
| 2026-04-30 21:06 | 14.28495 | 38.89766 | 40054 ft | 484 kts | 0° |
| 2026-04-30 21:06 | 14.35239 | 38.89840 | 40043 ft | 484 kts | 0° |
| 2026-04-30 21:07 | 14.41968 | 38.89913 | 40036 ft | 484 kts | 0° |
| 2026-04-30 21:07 | 14.48664 | 38.89986 | 40032 ft | 484 kts | 0° |
| 2026-04-30 21:08 | 14.55396 | 38.90026 | 40030 ft | 483 kts | 359° |
| 2026-04-30 21:08 | 14.62119 | 38.90020 | 40030 ft | 483 kts | 359° |
| 2026-04-30 21:09 | 14.68859 | 38.90021 | 40037 ft | 483 kts | 359° |
| 2026-04-30 21:09 | 14.75582 | 38.90027 | 40046 ft | 483 kts | 359° |
| 2026-04-30 21:10 | 14.82294 | 38.90033 | 40036 ft | 483 kts | 359° |
| 2026-04-30 21:10 | 14.89011 | 38.90041 | 40037 ft | 483 kts | 359° |
| 2026-04-30 21:11 | 14.95733 | 38.90048 | 40048 ft | 483 kts | 359° |
| 2026-04-30 21:11 | 15.02460 | 38.90055 | 40042 ft | 483 kts | 359° |
| 2026-04-30 21:12 | 15.09156 | 38.90062 | 40041 ft | 484 kts | 359° |
| 2026-04-30 21:12 | 15.15889 | 38.90069 | 40039 ft | 484 kts | 359° |
| 2026-04-30 21:13 | 15.22631 | 38.90076 | 40038 ft | 484 kts | 359° |
| 2026-04-30 21:13 | 15.29388 | 38.90084 | 40030 ft | 484 kts | 359° |
| 2026-04-30 21:14 | 15.36135 | 38.90301 | 40021 ft | 485 kts | 1° |
| 2026-04-30 21:14 | 15.42848 | 38.90586 | 40029 ft | 485 kts | 1° |
| 2026-04-30 21:15 | 15.49607 | 38.90841 | 40028 ft | 485 kts | 1° |
| 2026-04-30 21:15 | 15.56370 | 38.91083 | 40018 ft | 485 kts | 1° |
| 2026-04-30 21:16 | 15.63125 | 38.91325 | 39999 ft | 485 kts | 1° |
| 2026-04-30 21:16 | 15.69880 | 38.91569 | 39996 ft | 485 kts | 1° |
| 2026-04-30 21:17 | 15.76647 | 38.91811 | 39979 ft | 486 kts | 0° |
| 2026-04-30 21:17 | 15.83357 | 38.92052 | 39974 ft | 486 kts | 0° |
| 2026-04-30 21:18 | 15.90120 | 38.92296 | 39966 ft | 486 kts | 0° |
| 2026-04-30 21:18 | 15.96891 | 38.92539 | 39966 ft | 486 kts | 0° |
| 2026-04-30 21:19 | 16.03654 | 38.92784 | 39960 ft | 487 kts | 0° |
| 2026-04-30 21:19 | 16.10441 | 38.93029 | 39958 ft | 487 kts | 0° |
| 2026-04-30 21:20 | 16.17220 | 38.93273 | 39951 ft | 487 kts | 0° |
| 2026-04-30 21:20 | 16.23957 | 38.93517 | 39947 ft | 487 kts | 0° |
| 2026-04-30 21:21 | 16.30739 | 38.93762 | 39949 ft | 487 kts | 0° |
| 2026-04-30 21:22 | 16.40897 | 38.94130 | 39939 ft | 487 kts | 0° |
| 2026-04-30 21:23 | 16.53294 | 38.94579 | 39953 ft | 486 kts | 0° |
| 2026-04-30 21:23 | 16.63456 | 38.94947 | 39934 ft | 486 kts | 0° |
| 2026-04-30 21:24 | 16.70176 | 38.95191 | 39933 ft | 486 kts | 0° |
| 2026-04-30 21:24 | 16.76950 | 38.95437 | 39932 ft | 486 kts | 0° |
| 2026-04-30 21:25 | 16.87100 | 38.95806 | 39926 ft | 486 kts | 0° |
| 2026-04-30 21:26 | 16.97209 | 38.96175 | 39921 ft | 485 kts | 0° |
| 2026-04-30 21:27 | 17.07341 | 38.96543 | 39918 ft | 485 kts | 360° |
| 2026-04-30 21:27 | 17.14112 | 38.96790 | 39918 ft | 485 kts | 360° |
| 2026-04-30 21:28 | 17.24205 | 38.97159 | 39915 ft | 485 kts | 360° |
| 2026-04-30 21:29 | 17.34332 | 38.97529 | 39915 ft | 486 kts | 360° |
| 2026-04-30 21:30 | 17.51200 | 38.98140 | 39910 ft | 486 kts | 360° |
| 2026-04-30 21:31 | 17.68115 | 38.98746 | 39910 ft | 486 kts | 359° |
| 2026-04-30 21:32 | 17.78253 | 38.99110 | 39911 ft | 486 kts | 359° |
| 2026-04-30 21:32 | 17.85004 | 38.99353 | 39910 ft | 487 kts | 359° |
| 2026-04-30 21:33 | 17.95161 | 38.99719 | 39910 ft | 487 kts | 359° |
| 2026-04-30 21:34 | 18.01952 | 38.99964 | 39910 ft | 487 kts | 359° |
| 2026-04-30 21:34 | 18.12129 | 39.00331 | 39906 ft | 488 kts | 359° |
| 2026-04-30 21:35 | 18.18928 | 39.00585 | 39913 ft | 488 kts | 360° |
| 2026-04-30 21:35 | 18.25680 | 39.00963 | 39909 ft | 489 kts | 0° |
| 2026-04-30 21:36 | 18.32478 | 39.01360 | 39910 ft | 489 kts | 0° |
| 2026-04-30 21:37 | 18.46098 | 39.02118 | 39907 ft | 490 kts | 360° |
| 2026-04-30 21:37 | 18.52911 | 39.02495 | 39907 ft | 490 kts | 360° |
| 2026-04-30 21:38 | 18.59727 | 39.02873 | 39906 ft | 490 kts | 360° |
| 2026-04-30 21:38 | 18.66511 | 39.03249 | 39904 ft | 491 kts | 360° |
| 2026-04-30 21:39 | 18.73332 | 39.03627 | 39901 ft | 491 kts | 359° |
| 2026-04-30 21:39 | 18.80169 | 39.04007 | 39898 ft | 491 kts | 359° |
| 2026-04-30 21:40 | 18.86968 | 39.04384 | 39902 ft | 491 kts | 359° |
| 2026-04-30 21:40 | 18.93796 | 39.04764 | 39900 ft | 491 kts | 359° |
| 2026-04-30 21:41 | 19.00625 | 39.05144 | 39901 ft | 492 kts | 359° |
| 2026-04-30 21:41 | 19.07459 | 39.05503 | 39896 ft | 491 kts | 357° |
| 2026-04-30 21:42 | 19.14219 | 39.05037 | 39896 ft | 485 kts | 347° |
| 2026-04-30 21:42 | 19.20759 | 39.03473 | 39896 ft | 480 kts | 340° |
| 2026-04-30 21:43 | 19.27229 | 39.01625 | 39899 ft | 481 kts | 340° |
| 2026-04-30 21:43 | 19.33650 | 38.99806 | 39899 ft | 481 kts | 340° |
| 2026-04-30 21:44 | 19.40114 | 38.97965 | 39897 ft | 481 kts | 340° |
| 2026-04-30 21:44 | 19.46571 | 38.96123 | 39898 ft | 481 kts | 340° |
| 2026-04-30 21:45 | 19.53032 | 38.94277 | 39902 ft | 481 kts | 340° |
| 2026-04-30 21:45 | 19.59490 | 38.92431 | 39904 ft | 481 kts | 340° |
| 2026-04-30 21:46 | 19.65954 | 38.90582 | 39900 ft | 481 kts | 340° |
| 2026-04-30 21:46 | 19.72406 | 38.88735 | 39902 ft | 480 kts | 340° |
| 2026-04-30 21:47 | 19.78869 | 38.86882 | 39904 ft | 480 kts | 340° |
| 2026-04-30 21:47 | 19.85311 | 38.85035 | 39906 ft | 480 kts | 339° |
| 2026-04-30 21:48 | 19.91721 | 38.83195 | 39901 ft | 479 kts | 339° |
| 2026-04-30 21:48 | 19.98164 | 38.81344 | 39897 ft | 479 kts | 339° |
| 2026-04-30 21:49 | 20.01379 | 38.80420 | 39650 ft | 478 kts | 339° |
| 2026-04-30 21:49 | 20.04581 | 38.79499 | 39059 ft | 480 kts | 339° |
| 2026-04-30 21:49 | 20.07837 | 38.78562 | 38056 ft | 485 kts | 339° |
| 2026-04-30 21:49 | 20.11116 | 38.77615 | 36822 ft | 490 kts | 339° |
| 2026-04-30 21:50 | 20.14413 | 38.76664 | 35598 ft | 493 kts | 339° |
| 2026-04-30 21:50 | 20.17718 | 38.75713 | 34288 ft | 491 kts | 339° |
| 2026-04-30 21:50 | 20.21021 | 38.74763 | 32934 ft | 489 kts | 339° |
| 2026-04-30 21:50 | 20.24275 | 38.73829 | 31956 ft | 479 kts | 338° |
| 2026-04-30 21:51 | 20.27440 | 38.72919 | 31256 ft | 474 kts | 338° |
| 2026-04-30 21:51 | 20.30618 | 38.72002 | 30522 ft | 471 kts | 338° |
| 2026-04-30 21:51 | 20.33765 | 38.71093 | 29891 ft | 465 kts | 338° |
| 2026-04-30 21:51 | 20.36871 | 38.70193 | 29248 ft | 459 kts | 339° |
| 2026-04-30 21:52 | 20.39926 | 38.69309 | 28652 ft | 451 kts | 339° |
| 2026-04-30 21:52 | 20.42932 | 38.68439 | 28053 ft | 444 kts | 339° |
| 2026-04-30 21:52 | 20.45892 | 38.67580 | 27467 ft | 437 kts | 340° |
| 2026-04-30 21:52 | 20.48812 | 38.66733 | 26877 ft | 431 kts | 340° |
| 2026-04-30 21:53 | 20.51682 | 38.65899 | 26305 ft | 425 kts | 340° |
| 2026-04-30 21:53 | 20.54517 | 38.65076 | 25679 ft | 421 kts | 341° |
| 2026-04-30 21:53 | 20.57284 | 38.64271 | 25172 ft | 414 kts | 341° |
| 2026-04-30 21:53 | 20.60099 | 38.63452 | 24584 ft | 409 kts | 341° |
| 2026-04-30 21:54 | 20.62797 | 38.62668 | 24008 ft | 405 kts | 342° |
| 2026-04-30 21:54 | 20.65491 | 38.61885 | 23464 ft | 399 kts | 342° |
| 2026-04-30 21:54 | 20.68144 | 38.61115 | 22924 ft | 392 kts | 342° |
| 2026-04-30 21:54 | 20.70751 | 38.60361 | 22392 ft | 384 kts | 342° |
| 2026-04-30 21:55 | 20.73322 | 38.59617 | 21866 ft | 389 kts | 342° |
| 2026-04-30 21:55 | 20.76022 | 38.58829 | 21310 ft | 413 kts | 342° |
| 2026-04-30 21:55 | 20.78837 | 38.58008 | 20726 ft | 421 kts | 342° |
| 2026-04-30 21:55 | 20.81667 | 38.57190 | 20106 ft | 421 kts | 343° |
| 2026-04-30 21:56 | 20.84554 | 38.56732 | 19505 ft | 419 kts | 355° |
| 2026-04-30 21:56 | 20.87442 | 38.57012 | 18956 ft | 414 kts | 9° |
| 2026-04-30 21:56 | 20.90142 | 38.58022 | 18365 ft | 411 kts | 24° |
| 2026-04-30 21:56 | 20.92538 | 38.59634 | 17731 ft | 405 kts | 33° |
| 2026-04-30 21:57 | 20.94775 | 38.61408 | 17215 ft | 394 kts | 34° |
| 2026-04-30 21:57 | 20.96941 | 38.63081 | 16709 ft | 384 kts | 32° |
| 2026-04-30 21:57 | 20.99159 | 38.64680 | 16511 ft | 392 kts | 31° |
| 2026-04-30 21:57 | 21.01509 | 38.66283 | 16411 ft | 404 kts | 30° |
| 2026-04-30 21:58 | 21.03890 | 38.67865 | 16221 ft | 401 kts | 29° |
| 2026-04-30 21:58 | 21.06268 | 38.69427 | 16017 ft | 400 kts | 29° |
| 2026-04-30 21:58 | 21.08642 | 38.70981 | 15811 ft | 399 kts | 29° |
| 2026-04-30 21:58 | 21.11013 | 38.72535 | 15609 ft | 399 kts | 29° |
| 2026-04-30 21:59 | 21.13371 | 38.74082 | 15417 ft | 397 kts | 29° |
| 2026-04-30 21:59 | 21.15729 | 38.75632 | 15210 ft | 397 kts | 29° |
| 2026-04-30 21:59 | 21.18084 | 38.77180 | 15011 ft | 396 kts | 29° |
| 2026-04-30 22:00 | 21.22776 | 38.80268 | 14615 ft | 393 kts | 30° |
| 2026-04-30 22:00 | 21.27444 | 38.83342 | 14287 ft | 394 kts | 30° |
| 2026-04-30 22:00 | 21.29753 | 38.84864 | 14101 ft | 393 kts | 30° |
| 2026-04-30 22:01 | 21.32079 | 38.86397 | 13904 ft | 392 kts | 30° |
| 2026-04-30 22:01 | 21.34402 | 38.87929 | 13697 ft | 392 kts | 30° |
| 2026-04-30 22:01 | 21.36722 | 38.89460 | 13504 ft | 390 kts | 30° |
| 2026-04-30 22:01 | 21.39028 | 38.90982 | 13279 ft | 389 kts | 30° |
| 2026-04-30 22:02 | 21.41314 | 38.92494 | 13185 ft | 380 kts | 30° |
| 2026-04-30 22:02 | 21.43410 | 38.94147 | 13043 ft | 367 kts | 39° |
| 2026-04-30 22:02 | 21.44615 | 38.95382 | 12932 ft | 355 kts | 44° |
| 2026-04-30 22:02 | 21.46596 | 38.97561 | 12724 ft | 331 kts | 44° |
| 2026-04-30 22:03 | 21.48159 | 38.99258 | 12506 ft | 307 kts | 44° |
| 2026-04-30 22:03 | 21.49612 | 39.00827 | 12319 ft | 286 kts | 44° |
| 2026-04-30 22:03 | 21.50972 | 39.02291 | 11837 ft | 277 kts | 44° |
| 2026-04-30 22:03 | 21.52343 | 39.03767 | 11237 ft | 274 kts | 44° |
| 2026-04-30 22:04 | 21.53662 | 39.05186 | 10676 ft | 271 kts | 44° |
| 2026-04-30 22:04 | 21.54960 | 39.06638 | 10195 ft | 268 kts | 49° |
| 2026-04-30 22:04 | 21.56550 | 39.10193 | 9284 ft | 263 kts | 71° |
| 2026-04-30 22:05 | 21.57147 | 39.12040 | 8825 ft | 262 kts | 70° |
| 2026-04-30 22:05 | 21.57763 | 39.13886 | 8361 ft | 261 kts | 70° |
| 2026-04-30 22:05 | 21.58384 | 39.15710 | 7898 ft | 260 kts | 70° |
| 2026-04-30 22:05 | 21.59002 | 39.17506 | 7589 ft | 253 kts | 69° |
| 2026-04-30 22:06 | 21.59611 | 39.19270 | 7222 ft | 251 kts | 69° |
| 2026-04-30 22:06 | 21.60819 | 39.22765 | 6477 ft | 248 kts | 69° |
| 2026-04-30 22:06 | 21.61409 | 39.24476 | 6109 ft | 246 kts | 69° |
| 2026-04-30 22:07 | 21.62001 | 39.26196 | 5747 ft | 244 kts | 70° |
| 2026-04-30 22:07 | 21.62259 | 39.27978 | 5339 ft | 242 kts | 95° |
| 2026-04-30 22:07 | 21.61989 | 39.29148 | 5088 ft | 238 kts | 115° |
| 2026-04-30 22:07 | 21.60565 | 39.30850 | 4490 ft | 233 kts | 153° |
| 2026-04-30 22:08 | 21.59574 | 39.31270 | 4192 ft | 231 kts | 167° |
| 2026-04-30 22:08 | 21.57464 | 39.31730 | 3581 ft | 232 kts | 172° |
| 2026-04-30 22:08 | 21.56395 | 39.31962 | 3298 ft | 232 kts | 169° |
| 2026-04-30 22:08 | 21.55347 | 39.32148 | 2999 ft | 230 kts | 180° |
| 2026-04-30 22:09 | 21.51531 | 39.26735 | 1986 ft | 221 kts | 262° |
| 2026-04-30 22:10 | 21.51704 | 39.25150 | 2001 ft | 212 kts | 298° |
| 2026-04-30 22:10 | 21.52567 | 39.24019 | 1984 ft | 183 kts | 323° |
| 2026-04-30 22:10 | 21.53575 | 39.23345 | 2007 ft | 164 kts | 335° |
| 2026-04-30 22:10 | 21.54568 | 39.22874 | 2006 ft | 147 kts | 339° |
| 2026-04-30 22:11 | 21.56335 | 39.22133 | 1983 ft | 136 kts | 340° |
| 2026-04-30 22:11 | 21.57223 | 39.21782 | 1973 ft | 139 kts | 341° |
| 2026-04-30 22:11 | 21.58108 | 39.21429 | 1807 ft | 130 kts | 341° |
| 2026-04-30 22:12 | 21.58986 | 39.21083 | 1659 ft | 137 kts | 341° |
| 2026-04-30 22:12 | 21.59861 | 39.20736 | 1476 ft | 136 kts | 341° |
| 2026-04-30 22:12 | 21.60753 | 39.20383 | 1284 ft | 133 kts | 341° |
| 2026-04-30 22:12 | 21.61637 | 39.20033 | 1122 ft | 137 kts | 341° |
| 2026-04-30 22:13 | 21.62244 | 39.19793 | 996 ft | 134 kts | 341° |
| 2026-04-30 22:13 | 21.63140 | 39.19445 | 735 ft | 138 kts | 340° |
| 2026-04-30 22:13 | 21.64022 | 39.19087 | 544 ft | 137 kts | 339° |
| 2026-04-30 22:13 | 21.64898 | 39.18713 | 380 ft | 131 kts | 340° |
| 2026-04-30 22:14 | 21.65785 | 39.18385 | 223 ft | 139 kts | 341° |
| 2026-04-30 22:14 | 21.66661 | 39.18037 | 87 ft | 132 kts | 341° |
| 2026-04-30 22:14 | 21.67454 | 39.17732 | 53 ft | 107 kts | 340° |
| 2026-04-30 22:14 | 21.67906 | 39.17553 | 54 ft | 14 kts | 338° |
| 2026-04-30 22:15 | 21.67998 | 39.17483 | 51 ft | 18 kts | 313° |
| 2026-04-30 22:15 | 21.68084 | 39.17382 | 48 ft | 19 kts | 312° |
| 2026-04-30 22:15 | 21.68113 | 39.17340 | 53 ft | 2 kts | 294° |
| 2026-04-30 22:15 | 21.68095 | 39.17327 | 48 ft | 4 kts | 205° |
| 2026-04-30 22:16 | 21.68035 | 39.17325 | 54 ft | 14 kts | 185° |
| 2026-04-30 22:16 | 21.67893 | 39.17325 | 49 ft | 25 kts | 171° |
| 2026-04-30 22:17 | 21.67363 | 39.17536 | 55 ft | 28 kts | 160° |
| 2026-04-30 22:17 | 21.67254 | 39.17560 | 56 ft | 11 kts | 198° |
| 2026-04-30 22:17 | 21.67187 | 39.17428 | 51 ft | 6 kts | 241° |
| 2026-04-30 22:18 | 21.67190 | 39.17389 | 50 ft | 4 kts | 314° |
| 2026-04-30 22:18 | 21.67252 | 39.17333 | 53 ft | 0 kts | 321° |